createdAt,value
2018-07-16T00:00:15.662Z,17.5
2018-07-16T00:01:17.282Z,17.4
2018-07-16T00:02:18.910Z,17.5
2018-07-16T00:03:20.524Z,17.4
2018-07-16T00:04:22.144Z,17.5
2018-07-16T00:05:23.757Z,17.5
2018-07-16T00:06:25.374Z,17.4
2018-07-16T00:07:26.995Z,17.3
2018-07-16T00:08:28.609Z,17.4
2018-07-16T00:09:30.226Z,17.3
2018-07-16T00:10:31.839Z,17.4
2018-07-16T00:11:33.465Z,17.4
2018-07-16T00:12:35.078Z,17.2
2018-07-16T00:13:36.702Z,17.4
2018-07-16T00:14:39.567Z,17.3
2018-07-16T00:15:41.572Z,17.2
2018-07-16T00:16:43.165Z,17.2
2018-07-16T00:17:44.971Z,17.3
2018-07-16T00:18:46.576Z,17.2
2018-07-16T00:19:48.609Z,17.2
2018-07-16T00:20:50.834Z,17.1
2018-07-16T00:21:53.147Z,17.2
2018-07-16T00:22:54.729Z,17.1
2018-07-16T00:23:56.346Z,17.1
2018-07-16T00:24:57.961Z,17.1
2018-07-16T00:25:59.579Z,17.1
2018-07-16T00:27:01.192Z,17.2
2018-07-16T00:28:02.807Z,17.1
2018-07-16T00:29:04.431Z,17.0
2018-07-16T00:30:06.050Z,17.2
2018-07-16T00:31:07.688Z,17.1
2018-07-16T00:32:09.299Z,17.1
2018-07-16T00:33:10.909Z,17.2
2018-07-16T00:34:12.953Z,17.0
2018-07-16T00:35:14.508Z,16.9
2018-07-16T00:36:16.596Z,16.9
2018-07-16T00:37:18.261Z,17.0
2018-07-16T00:38:20.054Z,16.9
2018-07-16T00:39:22.144Z,17.0
2018-07-16T00:40:23.741Z,16.9
2018-07-16T00:41:25.367Z,16.9
2018-07-16T00:42:27.028Z,16.9
2018-07-16T00:43:28.642Z,16.8
2018-07-16T00:44:30.294Z,16.8
2018-07-16T00:45:31.876Z,16.9
2018-07-16T00:46:34.127Z,16.8
2018-07-16T00:47:36.223Z,16.7
2018-07-16T00:48:37.870Z,16.7
2018-07-16T00:49:40.037Z,16.8
2018-07-16T00:50:42.118Z,16.8
2018-07-16T00:51:44.228Z,16.7
2018-07-16T00:52:46.086Z,16.7
2018-07-16T00:53:47.692Z,16.6
2018-07-16T00:54:49.314Z,16.7
2018-07-16T00:55:50.967Z,16.7
2018-07-16T00:56:52.545Z,16.6
2018-07-16T00:57:54.160Z,16.6
2018-07-16T00:58:55.781Z,16.6
2018-07-16T00:59:57.398Z,16.6
2018-07-16T01:00:59.009Z,16.5
2018-07-16T01:02:00.629Z,16.4
2018-07-16T01:03:02.246Z,16.5
2018-07-16T01:04:03.868Z,16.5
2018-07-16T01:05:05.483Z,16.4
2018-07-16T01:06:07.094Z,16.4
2018-07-16T01:07:08.720Z,16.4
2018-07-16T01:08:10.333Z,16.4
2018-07-16T01:09:11.949Z,16.4
2018-07-16T01:10:13.569Z,16.3
2018-07-16T01:11:15.182Z,16.3
2018-07-16T01:12:16.796Z,16.3
2018-07-16T01:13:18.418Z,16.3
2018-07-16T01:14:20.041Z,16.3
2018-07-16T01:15:21.651Z,16.2
2018-07-16T01:16:23.271Z,16.3
2018-07-16T01:17:24.883Z,16.2
2018-07-16T01:18:26.495Z,16.3
2018-07-16T01:19:28.110Z,16.3
2018-07-16T01:20:29.735Z,16.3
2018-07-16T01:21:31.357Z,16.3
2018-07-16T01:22:32.973Z,16.2
2018-07-16T01:23:34.586Z,16.3
2018-07-16T01:24:36.201Z,16.2
2018-07-16T01:25:37.821Z,16.3
2018-07-16T01:26:39.431Z,16.3
2018-07-16T01:27:41.052Z,16.3
2018-07-16T01:28:42.673Z,16.4
2018-07-16T01:29:44.284Z,16.3
2018-07-16T01:30:45.903Z,16.3
2018-07-16T01:31:47.515Z,16.3
2018-07-16T01:32:49.129Z,16.3
2018-07-16T01:33:50.750Z,16.3
2018-07-16T01:34:52.366Z,16.2
2018-07-16T01:35:54.008Z,16.3
2018-07-16T01:36:55.626Z,16.3
2018-07-16T01:37:57.238Z,16.3
2018-07-16T01:38:58.846Z,16.2
2018-07-16T01:40:00.470Z,16.2
2018-07-16T01:41:02.081Z,16.2
2018-07-16T01:42:03.706Z,16.3
2018-07-16T01:43:05.326Z,16.3
2018-07-16T01:44:06.934Z,16.2
2018-07-16T01:45:08.556Z,16.2
2018-07-16T01:46:10.164Z,16.2
2018-07-16T01:47:11.780Z,16.0
2018-07-16T01:48:13.397Z,16.0
2018-07-16T01:49:15.017Z,16.0
2018-07-16T01:50:16.635Z,16.1
2018-07-16T01:51:18.247Z,16.0
2018-07-16T01:52:19.866Z,16.0
2018-07-16T01:53:21.490Z,16.1
2018-07-16T01:54:23.107Z,16.0
2018-07-16T01:55:24.720Z,16.0
2018-07-16T01:56:26.339Z,16.0
2018-07-16T01:57:27.968Z,15.9
2018-07-16T01:58:29.577Z,16.1
2018-07-16T01:59:31.194Z,16.0
2018-07-16T02:00:32.805Z,15.9
2018-07-16T02:01:34.422Z,15.8
2018-07-16T02:02:36.042Z,15.8
2018-07-16T02:03:37.663Z,15.9
2018-07-16T02:04:39.280Z,15.9
2018-07-16T02:05:40.892Z,15.9
2018-07-16T02:06:42.508Z,15.8
2018-07-16T02:07:44.121Z,15.8
2018-07-16T02:08:45.743Z,15.7
2018-07-16T02:09:47.357Z,15.8
2018-07-16T02:10:48.967Z,15.6
2018-07-16T02:11:50.581Z,15.6
2018-07-16T02:12:52.202Z,15.6
2018-07-16T02:13:53.811Z,15.6
2018-07-16T02:14:55.430Z,15.7
2018-07-16T02:15:57.052Z,15.7
2018-07-16T02:16:58.663Z,15.7
2018-07-16T02:18:00.286Z,15.7
2018-07-16T02:19:01.900Z,15.6
2018-07-16T02:20:03.517Z,15.6
2018-07-16T02:21:05.137Z,15.7
2018-07-16T02:22:06.753Z,15.7
2018-07-16T02:23:08.365Z,15.6
2018-07-16T02:24:09.982Z,15.6
2018-07-16T02:25:11.598Z,15.6
2018-07-16T02:26:13.217Z,15.5
2018-07-16T02:27:14.829Z,15.5
2018-07-16T02:28:16.444Z,15.6
2018-07-16T02:29:18.064Z,15.6
2018-07-16T02:30:19.680Z,15.6
2018-07-16T02:31:21.301Z,15.6
2018-07-16T02:32:22.913Z,15.6
2018-07-16T02:33:24.539Z,15.5
2018-07-16T02:34:26.139Z,15.6
2018-07-16T02:35:27.759Z,15.5
2018-07-16T02:36:29.378Z,15.5
2018-07-16T02:37:30.990Z,15.5
2018-07-16T02:38:32.612Z,15.5
2018-07-16T02:39:34.228Z,15.5
2018-07-16T02:40:35.849Z,15.5
2018-07-16T02:41:37.460Z,15.5
2018-07-16T02:42:39.081Z,15.5
2018-07-16T02:43:40.696Z,15.4
2018-07-16T02:44:42.307Z,15.5
2018-07-16T02:45:43.926Z,15.6
2018-07-16T02:46:45.540Z,15.4
2018-07-16T02:47:47.160Z,15.4
2018-07-16T02:48:48.769Z,15.4
2018-07-16T02:49:50.389Z,15.4
2018-07-16T02:50:52.006Z,15.3
2018-07-16T02:51:53.622Z,15.4
2018-07-16T02:52:55.230Z,15.4
2018-07-16T02:53:56.852Z,15.3
2018-07-16T02:54:58.469Z,15.5
2018-07-16T02:56:00.085Z,15.4
2018-07-16T02:57:01.699Z,15.4
2018-07-16T02:58:03.316Z,15.4
2018-07-16T02:59:04.925Z,15.3
2018-07-16T03:00:06.544Z,15.2
2018-07-16T03:01:08.168Z,15.3
2018-07-16T03:02:10.372Z,15.2
2018-07-16T03:03:11.995Z,15.3
2018-07-16T03:04:13.608Z,15.2
2018-07-16T03:05:15.252Z,15.4
2018-07-16T03:06:16.852Z,15.3
2018-07-16T03:07:18.462Z,15.4
2018-07-16T03:08:20.085Z,15.3
2018-07-16T03:09:21.704Z,15.2
2018-07-16T03:10:23.316Z,15.3
2018-07-16T03:11:24.929Z,15.3
2018-07-16T03:12:26.547Z,15.3
2018-07-16T03:13:28.163Z,15.2
2018-07-16T03:14:29.783Z,15.2
2018-07-16T03:15:31.400Z,15.2
2018-07-16T03:16:33.023Z,15.2
2018-07-16T03:17:34.635Z,15.3
2018-07-16T03:18:36.252Z,15.1
2018-07-16T03:19:37.867Z,15.3
2018-07-16T03:20:39.488Z,15.2
2018-07-16T03:21:41.109Z,15.2
2018-07-16T03:22:42.725Z,15.3
2018-07-16T03:23:44.353Z,15.1
2018-07-16T03:24:45.962Z,15.3
2018-07-16T03:25:47.588Z,15.1
2018-07-16T03:26:49.199Z,15.2
2018-07-16T03:27:50.817Z,15.1
2018-07-16T03:28:52.441Z,15.1
2018-07-16T03:29:54.063Z,15.0
2018-07-16T03:30:55.682Z,15.1
2018-07-16T03:31:57.300Z,15.1
2018-07-16T03:32:58.915Z,15.0
2018-07-16T03:34:00.532Z,15.1
2018-07-16T03:35:02.155Z,15.1
2018-07-16T03:36:03.775Z,15.0
2018-07-16T03:37:05.393Z,15.1
2018-07-16T03:38:07.016Z,15.0
2018-07-16T03:39:08.629Z,15.1
2018-07-16T03:40:10.245Z,15.1
2018-07-16T03:41:11.866Z,15.1
2018-07-16T03:42:13.487Z,15.0
2018-07-16T03:43:15.107Z,15.1
2018-07-16T03:44:16.724Z,15.0
2018-07-16T03:45:18.347Z,14.9
2018-07-16T03:46:19.982Z,15.0
2018-07-16T03:47:21.581Z,15.0
2018-07-16T03:48:23.206Z,15.0
2018-07-16T03:49:24.823Z,14.9
2018-07-16T03:50:26.438Z,15.0
2018-07-16T03:51:28.060Z,15.0
2018-07-16T03:52:29.682Z,15.0
2018-07-16T03:53:31.296Z,15.0
2018-07-16T03:54:32.945Z,14.9
2018-07-16T03:55:34.530Z,15.0
2018-07-16T03:56:36.147Z,15.0
2018-07-16T03:57:37.770Z,14.9
2018-07-16T03:58:39.387Z,15.0
2018-07-16T03:59:41.007Z,15.0
2018-07-16T04:00:42.625Z,15.0
2018-07-16T04:01:44.363Z,15.1
2018-07-16T04:02:45.868Z,15.1
2018-07-16T04:03:47.486Z,15.0
2018-07-16T04:04:49.099Z,14.9
2018-07-16T04:05:50.717Z,15.0
2018-07-16T04:06:52.342Z,14.9
2018-07-16T04:07:53.953Z,14.9
2018-07-16T04:08:55.576Z,14.9
2018-07-16T04:09:57.191Z,14.9
2018-07-16T04:10:58.809Z,14.9
2018-07-16T04:12:00.432Z,15.0
2018-07-16T04:13:02.050Z,14.9
2018-07-16T04:14:03.673Z,14.9
2018-07-16T04:15:05.293Z,14.9
2018-07-16T04:16:06.919Z,14.9
2018-07-16T04:17:08.536Z,14.8
2018-07-16T04:18:10.151Z,14.9
2018-07-16T04:19:11.770Z,14.8
2018-07-16T04:20:13.397Z,14.9
2018-07-16T04:21:15.016Z,14.9
2018-07-16T04:22:16.633Z,14.9
2018-07-16T04:23:18.257Z,15.1
2018-07-16T04:24:19.890Z,15.0
2018-07-16T04:25:21.508Z,14.9
2018-07-16T04:26:23.132Z,15.0
2018-07-16T04:27:24.760Z,15.0
2018-07-16T04:28:26.383Z,15.0
2018-07-16T04:29:28.006Z,15.1
2018-07-16T04:30:29.625Z,15.0
2018-07-16T04:31:31.246Z,15.1
2018-07-16T04:32:32.865Z,15.1
2018-07-16T04:33:34.486Z,15.1
2018-07-16T04:34:36.119Z,15.1
2018-07-16T04:35:37.747Z,15.1
2018-07-16T04:36:39.362Z,15.2
2018-07-16T04:37:40.988Z,15.1
2018-07-16T04:38:42.608Z,15.2
2018-07-16T04:39:44.254Z,15.2
2018-07-16T04:40:45.856Z,15.1
2018-07-16T04:41:47.473Z,15.1
2018-07-16T04:42:49.094Z,15.1
2018-07-16T04:43:50.719Z,15.3
2018-07-16T04:44:52.334Z,15.2
2018-07-16T04:45:53.954Z,15.2
2018-07-16T04:46:55.578Z,15.2
2018-07-16T04:47:57.198Z,15.2
2018-07-16T04:48:58.815Z,15.2
2018-07-16T04:50:00.459Z,15.3
2018-07-16T04:51:02.074Z,15.3
2018-07-16T04:52:03.698Z,15.3
2018-07-16T04:53:05.319Z,15.3
2018-07-16T04:54:06.932Z,15.2
2018-07-16T04:55:08.551Z,15.4
2018-07-16T04:56:10.189Z,15.3
2018-07-16T04:57:11.799Z,15.4
2018-07-16T04:58:13.421Z,15.3
2018-07-16T04:59:15.039Z,15.4
2018-07-16T05:00:16.662Z,15.3
2018-07-16T05:01:18.276Z,15.4
2018-07-16T05:02:19.903Z,15.4
2018-07-16T05:03:21.577Z,15.4
2018-07-16T05:04:23.148Z,15.4
2018-07-16T05:05:24.773Z,15.5
2018-07-16T05:06:26.391Z,15.4
2018-07-16T05:07:28.009Z,15.4
2018-07-16T05:08:29.642Z,15.5
2018-07-16T05:09:31.254Z,15.5
2018-07-16T05:10:32.876Z,15.5
2018-07-16T05:11:34.505Z,15.6
2018-07-16T05:12:36.117Z,15.5
2018-07-16T05:13:37.743Z,15.7
2018-07-16T05:14:39.358Z,15.6
2018-07-16T05:15:40.988Z,15.7
2018-07-16T05:16:42.609Z,15.8
2018-07-16T05:17:44.229Z,15.8
2018-07-16T05:18:46.193Z,15.9
2018-07-16T05:19:50.652Z,15.8
2018-07-16T05:20:52.272Z,16.0
2018-07-16T05:21:53.898Z,15.9
2018-07-16T05:22:55.721Z,16.0
2018-07-16T05:23:57.402Z,16.0
2018-07-16T05:24:58.965Z,16.0
2018-07-16T05:26:00.800Z,16.1
2018-07-16T05:27:02.663Z,16.1
2018-07-16T05:28:04.270Z,16.1
2018-07-16T05:29:05.879Z,16.2
2018-07-16T05:30:07.509Z,16.3
2018-07-16T05:31:09.129Z,16.3
2018-07-16T05:32:10.770Z,16.4
2018-07-16T05:33:12.369Z,16.4
2018-07-16T05:34:13.992Z,16.4
2018-07-16T05:35:15.611Z,16.5
2018-07-16T05:36:17.235Z,16.6
2018-07-16T05:37:18.861Z,16.6
2018-07-16T05:38:20.492Z,16.7
2018-07-16T05:39:22.116Z,16.7
2018-07-16T05:40:23.743Z,16.8
2018-07-16T05:41:25.438Z,16.7
2018-07-16T05:42:27.056Z,16.7
2018-07-16T05:43:28.687Z,16.8
2018-07-16T05:44:30.296Z,16.9
2018-07-16T05:45:31.912Z,16.9
2018-07-16T05:46:33.606Z,16.9
2018-07-16T05:47:35.230Z,16.9
2018-07-16T05:48:36.848Z,17.0
2018-07-16T05:49:38.475Z,17.0
2018-07-16T05:50:40.111Z,17.0
2018-07-16T05:51:41.722Z,17.1
2018-07-16T05:52:43.343Z,17.3
2018-07-16T05:53:44.967Z,17.2
2018-07-16T05:54:46.588Z,17.3
2018-07-16T05:55:48.204Z,17.3
2018-07-16T05:56:49.828Z,17.3
2018-07-16T05:57:51.440Z,17.4
2018-07-16T05:58:53.070Z,17.4
2018-07-16T05:59:54.696Z,17.5
2018-07-16T06:00:56.318Z,17.6
2018-07-16T06:01:57.946Z,17.6
2018-07-16T06:02:59.562Z,17.8
2018-07-16T06:04:01.183Z,17.8
2018-07-16T06:05:02.805Z,18.0
2018-07-16T06:06:04.429Z,17.9
2018-07-16T06:07:06.048Z,17.9
2018-07-16T06:08:07.674Z,18.0
2018-07-16T06:09:09.293Z,18.0
2018-07-16T06:10:10.911Z,18.1
2018-07-16T06:11:12.534Z,18.3
2018-07-16T06:12:14.154Z,18.3
2018-07-16T06:13:15.775Z,18.4
2018-07-16T06:14:17.412Z,18.5
2018-07-16T06:15:19.037Z,18.5
2018-07-16T06:16:20.659Z,18.7
2018-07-16T06:17:22.281Z,18.7
2018-07-16T06:18:23.897Z,18.9
2018-07-16T06:19:25.523Z,19.6
2018-07-16T06:20:27.142Z,21.3
2018-07-16T06:21:28.769Z,23.5
2018-07-16T06:22:30.395Z,25.2
2018-07-16T06:23:32.025Z,26.5
2018-07-16T06:24:33.642Z,27.7
2018-07-16T06:25:35.272Z,28.9
2018-07-16T06:26:36.894Z,30.0
2018-07-16T06:27:38.522Z,31.1
2018-07-16T06:28:40.144Z,32.1
2018-07-16T06:29:41.774Z,32.9
2018-07-16T06:30:43.395Z,33.4
2018-07-16T06:31:45.035Z,34.1
2018-07-16T06:32:46.651Z,34.7
2018-07-16T06:33:48.276Z,35.0
2018-07-16T06:34:49.905Z,35.5
2018-07-16T06:35:51.535Z,36.2
2018-07-16T06:36:53.156Z,36.6
2018-07-16T06:37:54.797Z,36.0
2018-07-16T06:38:56.418Z,36.0
2018-07-16T06:39:58.089Z,36.2
2018-07-16T06:40:59.910Z,37.0
2018-07-16T06:42:01.305Z,37.5
2018-07-16T06:43:02.931Z,38.1
2018-07-16T06:44:04.567Z,38.4
2018-07-16T06:45:06.194Z,38.8
2018-07-16T06:46:07.827Z,39.3
2018-07-16T06:47:09.454Z,38.5
2018-07-16T06:48:11.087Z,38.7
2018-07-16T06:49:12.721Z,38.9
2018-07-16T06:50:14.346Z,38.7
2018-07-16T06:51:15.976Z,38.9
2018-07-16T06:52:17.612Z,39.6
2018-07-16T06:53:19.246Z,40.4
2018-07-16T06:54:20.875Z,41.0
2018-07-16T06:55:22.506Z,41.6
2018-07-16T06:56:24.145Z,42.0
2018-07-16T06:57:25.776Z,42.7
2018-07-16T06:58:27.417Z,43.0
2018-07-16T06:59:29.044Z,43.3
2018-07-16T07:00:30.682Z,43.6
2018-07-16T07:01:32.316Z,43.8
2018-07-16T07:02:33.949Z,44.1
2018-07-16T07:03:35.583Z,44.3
2018-07-16T07:04:37.217Z,44.4
2018-07-16T07:05:38.852Z,44.3
2018-07-16T07:06:40.504Z,44.7
2018-07-16T07:07:42.134Z,44.3
2018-07-16T07:08:43.773Z,43.9
2018-07-16T07:09:45.406Z,44.1
2018-07-16T07:10:47.047Z,44.3
2018-07-16T07:11:48.686Z,44.7
2018-07-16T07:12:50.319Z,45.2
2018-07-16T07:13:51.958Z,45.7
2018-07-16T07:14:53.591Z,45.9
2018-07-16T07:15:55.224Z,46.3
2018-07-16T07:16:56.870Z,46.7
2018-07-16T07:17:58.504Z,46.2
2018-07-16T07:19:00.142Z,44.5
2018-07-16T07:20:01.789Z,45.0
2018-07-16T07:21:03.420Z,45.6
2018-07-16T07:22:05.072Z,46.2
2018-07-16T07:23:06.705Z,46.5
2018-07-16T07:24:08.346Z,46.4
2018-07-16T07:25:10.029Z,46.5
2018-07-16T07:26:11.624Z,46.7
2018-07-16T07:27:13.259Z,46.4
2018-07-16T07:28:14.901Z,46.8
2018-07-16T07:29:16.535Z,46.8
2018-07-16T07:30:18.173Z,46.8
2018-07-16T07:31:19.817Z,47.1
2018-07-16T07:32:21.455Z,47.3
2018-07-16T07:33:23.094Z,47.2
2018-07-16T07:34:24.735Z,47.4
2018-07-16T07:35:26.417Z,47.3
2018-07-16T07:36:28.022Z,47.3
2018-07-16T07:37:29.660Z,46.4
2018-07-16T07:38:31.316Z,46.7
2018-07-16T07:39:32.956Z,46.9
2018-07-16T07:40:34.594Z,47.2
2018-07-16T07:41:36.241Z,47.5
2018-07-16T07:42:37.885Z,47.6
2018-07-16T07:43:39.527Z,47.5
2018-07-16T07:44:41.178Z,47.8
2018-07-16T07:45:42.814Z,48.0
2018-07-16T07:46:44.455Z,48.2
2018-07-16T07:47:46.211Z,48.3
2018-07-16T07:48:47.745Z,48.2
2018-07-16T07:49:49.391Z,48.4
2018-07-16T07:50:51.029Z,48.4
2018-07-16T07:51:52.674Z,48.5
2018-07-16T07:52:54.311Z,48.2
2018-07-16T07:53:55.956Z,48.4
2018-07-16T07:54:57.798Z,48.7
2018-07-16T07:55:59.245Z,48.0
2018-07-16T07:57:00.893Z,48.7
2018-07-16T07:58:02.527Z,48.9
2018-07-16T07:59:04.192Z,49.0
2018-07-16T08:00:05.815Z,49.4
2018-07-16T08:01:07.453Z,49.9
2018-07-16T08:02:09.099Z,50.2
2018-07-16T08:03:10.814Z,50.4
2018-07-16T08:04:12.386Z,50.5
2018-07-16T08:05:14.030Z,50.6
2018-07-16T08:06:15.668Z,50.8
2018-07-16T08:07:17.323Z,50.9
2018-07-16T08:08:18.965Z,51.0
2018-07-16T08:09:20.616Z,51.5
2018-07-16T08:10:22.258Z,52.0
2018-07-16T08:11:23.902Z,52.0
2018-07-16T08:12:25.542Z,52.4
2018-07-16T08:13:27.186Z,51.6
2018-07-16T08:14:28.829Z,52.2
2018-07-16T08:15:30.479Z,52.5
2018-07-16T08:16:32.123Z,52.0
2018-07-16T08:17:33.772Z,51.7
2018-07-16T08:18:35.422Z,52.0
2018-07-16T08:19:37.062Z,52.2
2018-07-16T08:20:38.709Z,52.4
2018-07-16T08:21:40.354Z,52.5
2018-07-16T08:22:41.997Z,53.0
2018-07-16T08:23:43.639Z,53.1
2018-07-16T08:24:45.288Z,53.2
2018-07-16T08:25:46.938Z,53.4
2018-07-16T08:26:48.577Z,53.5
2018-07-16T08:27:50.222Z,53.1
2018-07-16T08:28:51.870Z,53.0
2018-07-16T08:29:53.515Z,53.0
2018-07-16T08:30:55.164Z,52.8
2018-07-16T08:31:56.812Z,52.7
2018-07-16T08:32:58.455Z,51.5
2018-07-16T08:34:00.103Z,50.3
2018-07-16T08:35:01.746Z,50.4
2018-07-16T08:36:03.388Z,51.0
2018-07-16T08:37:05.038Z,51.2
2018-07-16T08:38:06.685Z,51.0
2018-07-16T08:39:08.354Z,51.5
2018-07-16T08:40:09.975Z,51.7
2018-07-16T08:41:11.623Z,51.5
2018-07-16T08:42:13.275Z,51.6
2018-07-16T08:43:14.920Z,51.9
2018-07-16T08:44:16.572Z,52.3
2018-07-16T08:45:18.219Z,52.4
2018-07-16T08:46:19.888Z,52.6
2018-07-16T08:47:21.516Z,52.6
2018-07-16T08:48:23.156Z,52.4
2018-07-16T08:49:24.807Z,52.2
2018-07-16T08:50:26.451Z,52.2
2018-07-16T08:51:28.101Z,52.0
2018-07-16T08:52:29.748Z,51.7
2018-07-16T08:53:31.393Z,51.7
2018-07-16T08:54:33.038Z,51.6
2018-07-16T08:55:34.683Z,51.6
2018-07-16T08:56:36.326Z,51.7
2018-07-16T08:57:37.993Z,52.0
2018-07-16T08:58:39.613Z,52.0
2018-07-16T08:59:41.259Z,51.4
2018-07-16T09:00:42.908Z,51.4
2018-07-16T09:01:44.559Z,51.0
2018-07-16T09:02:46.229Z,50.9
2018-07-16T09:03:47.871Z,51.0
2018-07-16T09:04:49.520Z,48.9
2018-07-16T09:05:51.164Z,47.0
2018-07-16T09:06:52.811Z,48.4
2018-07-16T09:07:54.465Z,49.2
2018-07-16T09:08:56.110Z,49.3
2018-07-16T09:09:57.759Z,49.6
2018-07-16T09:10:59.479Z,48.5
2018-07-16T09:12:01.048Z,49.1
2018-07-16T09:13:02.790Z,49.8
2018-07-16T09:14:04.305Z,50.1
2018-07-16T09:15:05.958Z,50.3
2018-07-16T09:16:07.602Z,50.4
2018-07-16T09:17:09.248Z,50.4
2018-07-16T09:18:10.893Z,50.5
2018-07-16T09:19:12.554Z,50.5
2018-07-16T09:20:14.189Z,50.5
2018-07-16T09:21:15.830Z,50.7
2018-07-16T09:22:17.537Z,50.7
2018-07-16T09:23:19.143Z,50.7
2018-07-16T09:24:20.795Z,50.7
2018-07-16T09:25:22.477Z,50.7
2018-07-16T09:26:24.088Z,50.1
2018-07-16T09:27:25.733Z,50.4
2018-07-16T09:28:27.379Z,50.3
2018-07-16T09:29:29.029Z,49.8
2018-07-16T09:30:30.679Z,49.0
2018-07-16T09:31:32.324Z,49.4
2018-07-16T09:32:34.029Z,49.9
2018-07-16T09:33:35.619Z,49.7
2018-07-16T09:34:37.273Z,49.2
2018-07-16T09:35:38.921Z,49.6
2018-07-16T09:36:40.565Z,49.9
2018-07-16T09:37:42.222Z,49.8
2018-07-16T09:38:43.864Z,49.7
2018-07-16T09:39:45.507Z,49.6
2018-07-16T09:40:47.160Z,49.7
2018-07-16T09:41:48.802Z,49.6
2018-07-16T09:42:50.456Z,49.2
2018-07-16T09:43:52.106Z,49.2
2018-07-16T09:44:53.757Z,49.2
2018-07-16T09:45:55.404Z,49.5
2018-07-16T09:46:57.048Z,49.6
2018-07-16T09:47:58.695Z,49.8
2018-07-16T09:49:00.347Z,50.1
2018-07-16T09:50:01.991Z,49.9
2018-07-16T09:51:03.642Z,50.0
2018-07-16T09:52:05.292Z,49.8
2018-07-16T09:53:06.935Z,49.4
2018-07-16T09:54:08.579Z,49.3
2018-07-16T09:55:10.231Z,49.0
2018-07-16T09:56:12.000Z,49.1
2018-07-16T09:57:13.532Z,48.9
2018-07-16T09:58:15.182Z,48.9
2018-07-16T09:59:16.852Z,48.9
2018-07-16T10:00:18.504Z,48.6
2018-07-16T10:01:20.147Z,48.5
2018-07-16T10:02:21.791Z,48.1
2018-07-16T10:03:23.443Z,48.5
2018-07-16T10:04:25.086Z,48.7
2018-07-16T10:05:26.737Z,48.7
2018-07-16T10:06:28.409Z,48.6
2018-07-16T10:07:30.050Z,47.1
2018-07-16T10:08:31.792Z,46.8
2018-07-16T10:09:33.354Z,46.3
2018-07-16T10:10:34.995Z,46.7
2018-07-16T10:11:36.637Z,47.1
2018-07-16T10:12:38.286Z,47.4
2018-07-16T10:13:39.930Z,47.6
2018-07-16T10:14:41.575Z,47.7
2018-07-16T10:15:43.223Z,48.0
2018-07-16T10:16:44.873Z,47.9
2018-07-16T10:17:46.518Z,47.9
2018-07-16T10:18:48.167Z,48.0
2018-07-16T10:19:49.813Z,47.9
2018-07-16T10:20:51.462Z,48.1
2018-07-16T10:21:53.109Z,48.0
2018-07-16T10:22:54.759Z,48.1
2018-07-16T10:23:56.407Z,47.7
2018-07-16T10:24:58.054Z,47.7
2018-07-16T10:25:59.698Z,48.1
2018-07-16T10:27:01.344Z,48.3
2018-07-16T10:28:02.998Z,48.2
2018-07-16T10:29:04.645Z,48.3
2018-07-16T10:30:06.292Z,47.5
2018-07-16T10:31:07.940Z,47.5
2018-07-16T10:32:09.589Z,47.7
2018-07-16T10:33:11.242Z,46.5
2018-07-16T10:34:12.888Z,46.9
2018-07-16T10:35:14.534Z,46.7
2018-07-16T10:36:16.194Z,47.2
2018-07-16T10:37:17.843Z,47.0
2018-07-16T10:38:19.483Z,46.7
2018-07-16T10:39:21.157Z,47.0
2018-07-16T10:40:22.777Z,47.3
2018-07-16T10:41:24.433Z,47.5
2018-07-16T10:42:26.081Z,47.8
2018-07-16T10:43:27.719Z,48.0
2018-07-16T10:44:29.369Z,48.1
2018-07-16T10:45:31.009Z,48.2
2018-07-16T10:46:32.660Z,48.4
2018-07-16T10:47:34.308Z,48.5
2018-07-16T10:48:35.974Z,48.7
2018-07-16T10:49:37.680Z,48.7
2018-07-16T10:50:39.273Z,48.7
2018-07-16T10:51:40.930Z,48.8
2018-07-16T10:52:42.571Z,48.8
2018-07-16T10:53:44.221Z,48.8
2018-07-16T10:54:45.871Z,48.3
2018-07-16T10:55:47.521Z,48.4
2018-07-16T10:56:49.178Z,48.3
2018-07-16T10:57:50.819Z,48.0
2018-07-16T10:58:52.472Z,45.6
2018-07-16T10:59:54.118Z,46.3
2018-07-16T11:00:55.767Z,46.8
2018-07-16T11:01:57.465Z,46.9
2018-07-16T11:02:59.143Z,46.8
2018-07-16T11:04:00.717Z,45.7
2018-07-16T11:05:02.367Z,44.9
2018-07-16T11:06:04.026Z,45.5
2018-07-16T11:07:05.654Z,46.2
2018-07-16T11:08:07.308Z,46.7
2018-07-16T11:09:08.951Z,46.8
2018-07-16T11:10:10.602Z,46.8
2018-07-16T11:11:12.253Z,45.6
2018-07-16T11:12:13.899Z,45.5
2018-07-16T11:13:15.551Z,45.8
2018-07-16T11:14:17.204Z,46.0
2018-07-16T11:15:18.847Z,46.3
2018-07-16T11:16:20.496Z,47.0
2018-07-16T11:17:22.146Z,46.8
2018-07-16T11:18:23.790Z,47.2
2018-07-16T11:19:25.442Z,47.3
2018-07-16T11:20:27.083Z,47.1
2018-07-16T11:21:28.743Z,47.0
2018-07-16T11:22:30.379Z,47.2
2018-07-16T11:23:32.034Z,47.4
2018-07-16T11:24:33.681Z,47.5
2018-07-16T11:25:35.326Z,47.8
2018-07-16T11:26:36.971Z,47.8
2018-07-16T11:27:38.621Z,47.4
2018-07-16T11:28:40.271Z,47.8
2018-07-16T11:29:41.920Z,46.9
2018-07-16T11:30:43.565Z,46.9
2018-07-16T11:31:45.218Z,47.0
2018-07-16T11:32:46.870Z,47.2
2018-07-16T11:33:48.513Z,47.5
2018-07-16T11:34:50.168Z,47.7
2018-07-16T11:35:51.877Z,48.0
2018-07-16T11:36:53.449Z,47.7
2018-07-16T11:37:55.100Z,47.7
2018-07-16T11:38:56.753Z,47.5
2018-07-16T11:39:58.398Z,47.5
2018-07-16T11:41:00.041Z,47.4
2018-07-16T11:42:01.692Z,47.1
2018-07-16T11:43:03.342Z,47.2
2018-07-16T11:44:04.985Z,47.1
2018-07-16T11:45:06.633Z,47.0
2018-07-16T11:46:08.300Z,47.2
2018-07-16T11:47:09.933Z,47.3
2018-07-16T11:48:11.576Z,47.4
2018-07-16T11:49:13.227Z,47.7
2018-07-16T11:50:14.869Z,47.8
2018-07-16T11:51:16.518Z,47.3
2018-07-16T11:52:18.246Z,47.3
2018-07-16T11:53:19.814Z,47.2
2018-07-16T11:54:21.468Z,47.2
2018-07-16T11:55:23.117Z,47.3
2018-07-16T11:56:24.755Z,47.5
2018-07-16T11:57:26.411Z,47.4
2018-07-16T11:58:28.057Z,47.0
2018-07-16T11:59:29.706Z,47.0
2018-07-16T12:00:31.356Z,47.1
2018-07-16T12:01:33.001Z,47.3
2018-07-16T12:02:34.648Z,47.3
2018-07-16T12:03:36.385Z,47.4
2018-07-16T12:04:37.939Z,47.7
2018-07-16T12:05:39.586Z,48.0
2018-07-16T12:06:41.236Z,48.1
2018-07-16T12:07:42.890Z,47.6
2018-07-16T12:08:44.529Z,47.2
2018-07-16T12:09:46.181Z,47.2
2018-07-16T12:10:47.821Z,46.8
2018-07-16T12:11:49.468Z,46.9
2018-07-16T12:12:51.117Z,47.2
2018-07-16T12:13:52.758Z,47.3
2018-07-16T12:14:54.404Z,47.7
2018-07-16T12:15:56.058Z,47.9
2018-07-16T12:16:57.704Z,47.9
2018-07-16T12:17:59.346Z,47.6
2018-07-16T12:19:00.995Z,47.7
2018-07-16T12:20:02.636Z,47.7
2018-07-16T12:21:04.289Z,47.8
2018-07-16T12:22:05.934Z,47.8
2018-07-16T12:23:07.581Z,47.9
2018-07-16T12:24:09.230Z,47.8
2018-07-16T12:25:10.870Z,47.7
2018-07-16T12:26:12.516Z,47.8
2018-07-16T12:27:14.164Z,47.7
2018-07-16T12:28:15.806Z,47.8
2018-07-16T12:29:17.453Z,47.8
2018-07-16T12:30:19.100Z,47.7
2018-07-16T12:31:20.748Z,47.5
2018-07-16T12:32:22.398Z,47.1
2018-07-16T12:33:24.041Z,46.9
2018-07-16T12:34:25.688Z,47.0
2018-07-16T12:35:27.343Z,47.3
2018-07-16T12:36:28.992Z,47.2
2018-07-16T12:37:30.632Z,47.1
2018-07-16T12:38:32.277Z,47.0
2018-07-16T12:39:33.923Z,46.8
2018-07-16T12:40:35.567Z,47.1
2018-07-16T12:41:37.245Z,47.3
2018-07-16T12:42:38.866Z,47.4
2018-07-16T12:43:40.509Z,47.4
2018-07-16T12:44:42.158Z,47.1
2018-07-16T12:45:43.806Z,47.0
2018-07-16T12:46:45.519Z,46.8
2018-07-16T12:47:47.095Z,46.7
2018-07-16T12:48:48.738Z,46.6
2018-07-16T12:49:50.386Z,46.5
2018-07-16T12:50:52.032Z,45.8
2018-07-16T12:51:53.680Z,45.8
2018-07-16T12:52:55.324Z,45.6
2018-07-16T12:53:56.961Z,45.6
2018-07-16T12:54:58.611Z,45.1
2018-07-16T12:56:00.259Z,45.3
2018-07-16T12:57:01.920Z,45.3
2018-07-16T12:58:03.547Z,45.5
2018-07-16T12:59:05.199Z,45.5
2018-07-16T13:00:06.834Z,45.8
2018-07-16T13:01:08.475Z,46.0
2018-07-16T13:02:10.114Z,46.3
2018-07-16T13:03:11.767Z,46.2
2018-07-16T13:04:13.405Z,46.2
2018-07-16T13:05:15.061Z,46.1
2018-07-16T13:06:16.733Z,45.7
2018-07-16T13:07:18.342Z,45.6
2018-07-16T13:08:19.986Z,45.6
2018-07-16T13:09:21.633Z,45.5
2018-07-16T13:10:23.273Z,45.6
2018-07-16T13:11:24.918Z,45.9
2018-07-16T13:12:26.564Z,45.8
2018-07-16T13:13:28.200Z,45.8
2018-07-16T13:14:29.849Z,45.3
2018-07-16T13:15:31.485Z,45.4
2018-07-16T13:16:33.153Z,45.5
2018-07-16T13:17:34.796Z,45.5
2018-07-16T13:18:36.436Z,45.6
2018-07-16T13:19:38.073Z,45.8
2018-07-16T13:20:39.725Z,46.0
2018-07-16T13:21:41.374Z,46.3
2018-07-16T13:22:43.016Z,46.3
2018-07-16T13:23:44.664Z,45.9
2018-07-16T13:24:46.304Z,46.0
2018-07-16T13:25:47.947Z,45.9
2018-07-16T13:26:49.588Z,45.7
2018-07-16T13:27:51.234Z,45.8
2018-07-16T13:28:52.871Z,45.8
2018-07-16T13:29:54.514Z,45.7
2018-07-16T13:30:56.157Z,45.8
2018-07-16T13:31:57.799Z,45.6
2018-07-16T13:32:59.441Z,45.6
2018-07-16T13:34:01.079Z,44.9
2018-07-16T13:35:02.720Z,44.7
2018-07-16T13:36:04.362Z,44.5
2018-07-16T13:37:06.073Z,44.5
2018-07-16T13:38:07.662Z,44.6
2018-07-16T13:39:09.300Z,44.7
2018-07-16T13:40:10.944Z,44.9